Aérodrome :
LOGIN :

S'inscrire | Disclaimer

   EN    FR    IT 

 










Légende :    VFR   VFR Marginal   IFR   IFR Intensif   IFR Très Intensif
Visi : 
Plafond : 
>= 8 km
>= 3000ft
5 à 8 km
1000 à 3000 ft
1500m à 5 km
500 à 1000 ft
800 à 1500m
200 à 500 ft
< 800m
< 200 ft
Symboles :   Orages  Brouillard  Fortes neiges  Fortes précipitations  Vent > 20 kt
SIGMETs :   Divers  Orages  Givrage  Turbulence  Onde Orograph.  Cendres Volcan.






- Altitude de l'aérodrome : 885 ft
- Code IATA : BAS


LFSB - Bale-Mulhouse

DERNIER METAR :
  • 301630Z 18004KT 150V230 9999 FEW051 SCT100 23/19 Q1011 TEMPO 2000 TSRA SCT050CB

METARs EXPIRÉS :
  • 301600Z 19004KT 160V230 9999 FEW040 SCT073 22/18 Q1011 TEMPO 2000 TSRA SCT050CB
  • 301530Z 25005KT 210V280 9999 SCT043 BKN073 21/18 Q1012 TEMPO 2000 TSRA SCT050CB
  • 301500Z 25007KT 210V280 9999 SCT043 BKN080 21/18 Q1011 TEMPO 2000 TSRA SCT050CB
  • 301430Z 25010KT 9999 -SHRA BKN040 FEW050CB 22/18 Q1011 TEMPO 2000 TSRA SCT050CB
  • 301400Z 28007KT 250V310 9999 TS SCT050CB BKN060 23/18 Q1011 TEMPO 2000 TSRA SCT050CB

TAF TAF LFSB
Valide du 30 à 12h jusqu'au 31 à 12h UTC


301100Z 3012/3112 24006KT 9999 FEW040 BKN060
TEMPO 3012/3020 4000 SHRA SCT050CB
PROB40
TEMPO 3012/3018 28015G25KT 2000 TSRA
Météo : +33 3 89 90 31 11



MET'MAP, la Météo Aéronautique d'un coup d'oeil ! - Copyright ORBIFLY Décembre 2007 - Disclaimer

ORBIFLY MET'MAP TEAM :

Programmation & Développement : Alexandra Zaïnal
Sur une idée originale de : Baudouin d'Aumeries
Assistance à la programmation : Marc-Olivier Méhu
Soutien technique & logistique : Manuel Goepfert

Contact : metmap@orbifly.com




SOURCES & CREDITS :

   NOAA